Spences Bridge, Canada
Current Conditions -  °F | °C
As of 7:57 AM on Saturday 25 Oct 2014 (Local Time) from CWLY Reporting Station
Overcast Overcast  
Wind Chill: 43°   Ceiling: 300
Heat Index: 43°   Visibility: 8mi
Dew Point: 43°   Wind: 2mph
Humidity: 100%   Direction: 180°S
Pressure: 29.63"   Gusts: NA
Location:  50.42°N, 121.35°W
Report Text: CWLY 251457Z AUTO 18002KT 8SM BKN003 BKN010 OVC050 06/06 A2963 RMK PRESFR SLP039
Loading
Personal Weather Stations






























Interactive Weather Map
Tropical Storm Tracking
New forecast layout! Learn more

10-Day Weather Forecast

Advertisements
Track Severe Weather on mobile